Time;durP1;ratioP1;P1;durP2;ratioP2;P2;SDS_P1;SDS_P2;PMS_P1;PMS_P2;Temp;Humidity;BMP_temperature;BMP_pressure;BME280_temperature;BME280_humidity;BME280_pressure;Samples;Min_cycle;Max_cycle;Signal;HPM_P1;HPM_P2
2023/03/19 00:00:19;;;;;;;4.15;2.35;;;11.80;99.90;;;;;;5004675;28;20088;-57
2023/03/19 00:02:49;;;;;;;3.45;2.40;;;11.80;99.90;;;;;;5003833;28;20042;-57
2023/03/19 00:05:16;;;;;;;4.32;2.40;;;11.80;99.90;;;;;;5004148;28;20714;-58
2023/03/19 00:07:42;;;;;;;4.30;2.20;;;11.80;99.90;;;;;;5006312;28;20077;-57
2023/03/19 00:10:08;;;;;;;3.30;2.10;;;11.70;99.90;;;;;;5004206;28;20061;-58
2023/03/19 00:12:33;;;;;;;4.68;1.98;;;11.50;99.90;;;;;;5004514;28;20042;-57
2023/03/19 00:14:59;;;;;;;2.92;2.05;;;11.30;99.90;;;;;;4999048;28;20049;-57
2023/03/19 00:17:25;;;;;;;3.22;2.10;;;11.20;99.90;;;;;;5000820;28;20161;-57
2023/03/19 00:19:51;;;;;;;4.13;2.20;;;11.10;99.90;;;;;;5003968;28;20033;-58
2023/03/19 00:22:16;;;;;;;3.35;1.90;;;11.10;99.90;;;;;;5004190;28;20450;-57
2023/03/19 00:24:42;;;;;;;3.50;2.28;;;11.10;99.90;;;;;;5003770;28;20023;-57
2023/03/19 00:27:07;;;;;;;3.55;2.22;;;11.10;99.90;;;;;;5003352;28;20061;-57
2023/03/19 00:29:33;;;;;;;5.00;2.30;;;11.20;99.90;;;;;;4991378;28;20030;-57
2023/03/19 00:31:59;;;;;;;3.15;2.22;;;11.30;99.90;;;;;;5002066;28;20065;-57
2023/03/19 00:34:24;;;;;;;4.38;2.33;;;11.20;99.90;;;;;;5003674;28;20104;-58
2023/03/19 00:36:50;;;;;;;2.40;2.20;;;11.10;99.90;;;;;;5005421;28;20037;-57
2023/03/19 00:39:16;;;;;;;4.40;2.30;;;11.00;99.90;;;;;;5004505;28;20512;-57
2023/03/19 00:41:49;;;;;;;3.47;2.20;;;11.10;99.90;;;;;;5003937;28;20057;-58
2023/03/19 00:44:18;;;;;;;6.80;2.63;;;11.10;99.90;;;;;;5003794;28;20073;-58
2023/03/19 00:46:44;;;;;;;4.13;2.30;;;11.20;99.90;;;;;;5003518;28;20688;-57
2023/03/19 00:49:10;;;;;;;5.15;3.13;;;11.30;99.90;;;;;;5003704;28;20072;-57
2023/03/19 00:51:35;;;;;;;5.22;3.30;;;11.20;99.90;;;;;;5003688;28;20100;-57
2023/03/19 00:54:01;;;;;;;3.70;2.63;;;11.10;99.90;;;;;;5004372;28;20113;-57
2023/03/19 00:56:26;;;;;;;3.65;2.28;;;11.10;99.90;;;;;;4964814;28;20038;-58
2023/03/19 00:58:52;;;;;;;4.40;2.30;;;10.90;99.90;;;;;;4978950;28;20173;-57
2023/03/19 01:01:17;;;;;;;4.20;2.30;;;10.80;99.90;;;;;;4982075;28;20088;-57
2023/03/19 01:03:44;;;;;;;3.78;2.22;;;10.90;99.90;;;;;;4982512;28;20069;-57
2023/03/19 01:06:11;;;;;;;4.75;2.08;;;10.80;99.90;;;;;;4981255;28;20481;-57
2023/03/19 01:08:36;;;;;;;7.53;2.55;;;10.80;99.90;;;;;;4979256;28;20031;-57
2023/03/19 01:11:11;;;;;;;5.43;2.38;;;10.80;99.90;;;;;;4984268;28;20089;-57
2023/03/19 01:13:37;;;;;;;4.60;2.30;;;10.60;99.90;;;;;;4991984;28;20045;-58
2023/03/19 01:16:04;;;;;;;3.80;2.35;;;10.60;99.90;;;;;;5002290;28;20042;-57
2023/03/19 01:18:30;;;;;;;7.38;2.55;;;10.50;99.90;;;;;;5003734;28;20045;-58
2023/03/19 01:20:55;;;;;;;4.97;2.42;;;10.50;99.90;;;;;;5003262;28;20040;-57
2023/03/19 01:23:21;;;;;;;4.75;2.38;;;10.50;99.90;;;;;;5003322;28;20046;-57
2023/03/19 01:25:46;;;;;;;6.60;2.30;;;10.40;99.90;;;;;;5002880;28;20092;-57
2023/03/19 01:28:12;;;;;;;5.95;2.42;;;10.40;99.90;;;;;;5003116;28;20030;-58
2023/03/19 01:30:39;;;;;;;10.07;3.10;;;10.40;99.90;;;;;;5002997;28;20084;-57
2023/03/19 01:33:06;;;;;;;6.70;3.00;;;10.60;99.90;;;;;;5000576;28;20521;-57
2023/03/19 01:35:32;;;;;;;5.35;3.03;;;10.60;99.90;;;;;;5005164;28;20461;-57
2023/03/19 01:37:57;;;;;;;9.95;3.05;;;10.60;99.90;;;;;;5003746;28;20160;-58
2023/03/19 01:40:23;;;;;;;8.32;2.70;;;10.50;99.90;;;;;;5003282;28;20053;-58
2023/03/19 01:43:05;;;;;;;7.53;2.70;;;10.50;99.90;;;;;;5002089;28;20515;-57
2023/03/19 01:45:34;;;;;;;6.03;2.97;;;10.50;99.90;;;;;;5003507;28;20040;-57
2023/03/19 01:48:01;;;;;;;6.97;2.60;;;10.50;99.90;;;;;;5003203;28;20030;-57
2023/03/19 01:50:39;;;;;;;5.72;2.60;;;10.50;99.90;;;;;;5000851;28;20084;-57
2023/03/19 01:53:05;;;;;;;4.88;2.67;;;10.50;99.90;;;;;;5001625;28;20042;-57
2023/03/19 01:55:31;;;;;;;5.00;2.80;;;10.60;99.90;;;;;;5003583;28;20701;-58
2023/03/19 01:57:56;;;;;;;9.18;2.70;;;10.50;99.90;;;;;;5002548;28;20132;-57
2023/03/19 02:00:22;;;;;;;6.50;2.72;;;10.60;99.90;;;;;;5003117;28;20121;-58
2023/03/19 02:02:52;;;;;;;7.88;2.55;;;10.70;99.90;;;;;;5004857;28;20537;-58
2023/03/19 02:05:24;;;;;;;6.43;2.58;;;10.60;99.90;;;;;;5006104;28;20045;-58
2023/03/19 02:07:53;;;;;;;5.70;2.70;;;10.70;99.90;;;;;;5004517;28;20058;-57
2023/03/19 02:10:19;;;;;;;6.45;2.47;;;10.80;99.90;;;;;;5006025;28;20544;-57
2023/03/19 02:12:45;;;;;;;6.78;2.75;;;10.80;99.90;;;;;;5006496;28;20064;-57
2023/03/19 02:15:11;;;;;;;3.72;2.05;;;10.70;99.90;;;;;;5006177;28;20113;-57
2023/03/19 02:17:38;;;;;;;6.22;2.38;;;10.70;99.90;;;;;;5003780;28;20041;-58
2023/03/19 02:20:10;;;;;;;6.13;2.70;;;10.70;99.90;;;;;;5006187;28;20125;-58
2023/03/19 02:22:56;;;;;;;6.20;2.67;;;10.70;99.90;;;;;;5007121;28;20481;-57
2023/03/19 02:25:45;;;;;;;7.28;2.60;;;10.60;99.90;;;;;;5003066;28;20324;-57
2023/03/19 02:28:15;;;;;;;5.57;2.60;;;10.70;99.90;;;;;;4987512;28;20057;-57
2023/03/19 02:30:41;;;;;;;7.35;2.60;;;10.70;99.90;;;;;;5006980;28;20062;-57
2023/03/19 02:33:13;;;;;;;5.50;2.58;;;10.70;99.90;;;;;;5005546;28;20067;-57
2023/03/19 02:35:40;;;;;;;4.38;2.67;;;10.80;99.90;;;;;;5006521;28;20053;-57
2023/03/19 02:38:06;;;;;;;6.55;2.58;;;10.80;99.90;;;;;;5005615;28;20050;-57
2023/03/19 02:40:42;;;;;;;6.82;2.80;;;10.90;99.90;;;;;;5006632;28;20512;-57
2023/03/19 02:43:08;;;;;;;5.07;2.70;;;10.80;99.90;;;;;;5004817;28;20484;-57
2023/03/19 02:45:34;;;;;;;7.95;2.78;;;10.80;99.90;;;;;;5006902;28;20041;-57
2023/03/19 02:47:59;;;;;;;6.00;2.95;;;10.80;99.90;;;;;;5005499;28;20070;-57
2023/03/19 02:50:26;;;;;;;5.53;3.33;;;10.90;99.90;;;;;;5002236;28;20037;-58
2023/03/19 02:52:51;;;;;;;5.28;2.80;;;10.90;99.90;;;;;;5006212;28;20040;-57
2023/03/19 02:55:17;;;;;;;7.55;3.13;;;10.80;99.90;;;;;;5005866;28;20450;-57
2023/03/19 02:57:44;;;;;;;4.22;2.78;;;10.90;99.90;;;;;;5005458;28;20044;-57
2023/03/19 03:00:11;;;;;;;5.25;2.80;;;11.00;99.90;;;;;;5005483;28;20120;-57
2023/03/19 03:02:37;;;;;;;7.93;3.13;;;10.90;99.90;;;;;;5005899;28;20037;-57
2023/03/19 03:05:05;;;;;;;8.98;3.33;;;11.00;99.90;;;;;;5005699;28;20034;-57
2023/03/19 03:07:31;;;;;;;9.73;3.80;;;10.80;99.90;;;;;;5006536;28;20582;-58
2023/03/19 03:09:57;;;;;;;8.18;3.15;;;10.90;99.90;;;;;;5006194;28;20038;-58
2023/03/19 03:12:22;;;;;;;6.38;3.50;;;10.80;99.90;;;;;;5004600;28;20044;-57
2023/03/19 03:14:48;;;;;;;7.50;3.33;;;11.00;99.90;;;;;;5004958;28;20121;-57
2023/03/19 03:17:14;;;;;;;6.85;3.50;;;11.00;99.90;;;;;;5003242;28;20076;-58
2023/03/19 03:19:39;;;;;;;8.73;3.70;;;10.90;99.90;;;;;;5003706;28;20038;-58
2023/03/19 03:22:05;;;;;;;5.93;3.47;;;10.70;99.90;;;;;;5003948;28;20033;-57
2023/03/19 03:24:31;;;;;;;5.47;3.17;;;10.70;99.90;;;;;;5005758;28;20096;-58
2023/03/19 03:26:56;;;;;;;7.55;3.38;;;10.70;99.90;;;;;;5005019;28;20502;-58
2023/03/19 03:29:22;;;;;;;10.75;3.75;;;10.70;99.90;;;;;;5005512;28;20038;-58
2023/03/19 03:31:48;;;;;;;9.00;3.25;;;10.80;99.90;;;;;;5004520;28;20116;-58
2023/03/19 03:34:13;;;;;;;7.28;3.47;;;10.80;99.90;;;;;;5003262;28;20040;-58
2023/03/19 03:36:39;;;;;;;5.82;3.28;;;10.70;99.90;;;;;;5005156;28;20111;-58
2023/03/19 03:39:04;;;;;;;6.50;3.80;;;10.70;99.90;;;;;;5002382;28;20030;-58
2023/03/19 03:41:30;;;;;;;7.10;3.58;;;10.70;99.90;;;;;;5004458;28;20500;-58
2023/03/19 03:43:56;;;;;;;9.68;3.53;;;10.80;99.90;;;;;;5005907;28;20030;-58
2023/03/19 03:46:23;;;;;;;8.13;3.88;;;10.80;99.90;;;;;;5004215;28;20117;-58
2023/03/19 03:48:50;;;;;;;7.35;3.67;;;10.70;99.90;;;;;;5004838;28;20351;-58
2023/03/19 03:51:18;;;;;;;6.13;3.67;;;10.70;99.90;;;;;;5004090;28;20104;-58
2023/03/19 03:53:44;;;;;;;9.13;3.85;;;10.80;99.90;;;;;;5004932;28;20050;-57
2023/03/19 03:56:10;;;;;;;8.25;4.00;;;10.80;99.90;;;;;;5003722;28;20038;-58
2023/03/19 03:58:36;;;;;;;5.95;3.50;;;10.90;99.90;;;;;;5005105;28;20486;-58
2023/03/19 04:01:02;;;;;;;7.38;4.40;;;11.00;99.90;;;;;;5001225;28;20303;-58
2023/03/19 04:03:28;;;;;;;10.93;4.40;;;11.00;99.90;;;;;;5004240;28;20048;-59
2023/03/19 04:05:54;;;;;;;9.18;4.13;;;10.90;99.90;;;;;;5006080;28;20046;-58
2023/03/19 04:08:20;;;;;;;7.53;4.05;;;10.90;99.90;;;;;;5003545;28;20041;-57
2023/03/19 04:10:46;;;;;;;10.15;4.35;;;10.90;99.90;;;;;;5003899;28;20041;-58
2023/03/19 04:13:12;;;;;;;8.98;3.90;;;10.80;99.90;;;;;;5003909;28;20037;-58
2023/03/19 04:15:38;;;;;;;6.18;3.75;;;10.90;99.90;;;;;;5002264;28;20378;-58
2023/03/19 04:18:04;;;;;;;6.78;3.97;;;10.90;99.90;;;;;;5003169;28;20058;-58
2023/03/19 04:20:30;;;;;;;10.65;4.20;;;10.90;99.90;;;;;;5004737;28;20037;-58
2023/03/19 04:22:55;;;;;;;8.00;3.67;;;10.80;99.90;;;;;;5004235;28;20042;-58
2023/03/19 04:25:21;;;;;;;8.18;3.97;;;10.80;99.90;;;;;;5003373;28;20458;-58
2023/03/19 04:27:47;;;;;;;10.48;4.03;;;10.80;99.90;;;;;;5002918;28;20033;-58
2023/03/19 04:30:13;;;;;;;5.80;3.95;;;10.70;99.90;;;;;;5004014;28;20088;-58
2023/03/19 04:32:39;;;;;;;9.57;4.22;;;10.70;99.90;;;;;;5003029;28;20034;-58
2023/03/19 04:35:05;;;;;;;6.80;3.60;;;10.70;99.90;;;;;;5004094;28;20045;-58
2023/03/19 04:37:30;;;;;;;6.05;3.83;;;10.70;99.90;;;;;;4987979;28;20208;-58
2023/03/19 04:39:56;;;;;;;6.03;3.33;;;10.70;99.90;;;;;;5004190;28;20140;-58
2023/03/19 04:42:22;;;;;;;8.52;4.10;;;10.70;99.90;;;;;;5002862;28;20572;-58
2023/03/19 04:44:48;;;;;;;9.80;4.10;;;10.70;99.90;;;;;;5004188;28;20038;-58
2023/03/19 04:47:13;;;;;;;12.15;4.38;;;10.70;99.90;;;;;;5003398;28;20049;-58
2023/03/19 04:49:39;;;;;;;5.75;3.90;;;10.70;99.90;;;;;;5003712;28;20041;-58
2023/03/19 04:52:05;;;;;;;8.05;4.07;;;10.80;99.90;;;;;;5003821;28;20566;-58
2023/03/19 04:54:31;;;;;;;7.38;4.18;;;10.70;99.90;;;;;;5004229;28;20432;-58
2023/03/19 04:56:56;;;;;;;5.30;3.40;;;10.80;99.90;;;;;;5003084;28;20699;-58
2023/03/19 04:59:22;;;;;;;5.15;3.75;;;10.80;99.90;;;;;;5002806;28;20022;-58
2023/03/19 05:01:47;;;;;;;6.07;3.97;;;10.80;99.90;;;;;;5004293;28;20150;-58
2023/03/19 05:04:13;;;;;;;7.90;3.67;;;10.80;99.90;;;;;;5003308;28;20033;-58
2023/03/19 05:06:39;;;;;;;6.97;3.72;;;10.90;99.90;;;;;;5005207;28;20482;-58
2023/03/19 05:09:06;;;;;;;7.57;3.95;;;10.80;99.90;;;;;;5003368;28;20572;-58
2023/03/19 05:11:32;;;;;;;10.00;4.00;;;10.80;99.90;;;;;;5001787;28;20117;-58
2023/03/19 05:13:57;;;;;;;7.55;4.13;;;10.80;99.90;;;;;;5003907;28;20058;-58
2023/03/19 05:16:23;;;;;;;6.40;3.75;;;10.80;99.90;;;;;;5002986;28;20081;-58
2023/03/19 05:18:49;;;;;;;5.85;3.72;;;10.90;99.90;;;;;;5004036;28;20050;-58
2023/03/19 05:21:14;;;;;;;12.18;4.10;;;10.90;99.90;;;;;;4998607;28;20069;-58
2023/03/19 05:23:40;;;;;;;6.95;3.58;;;10.80;99.90;;;;;;4985798;28;20405;-58
2023/03/19 05:26:07;;;;;;;8.10;3.88;;;10.80;99.90;;;;;;5002062;28;20061;-58
2023/03/19 05:28:33;;;;;;;7.40;4.07;;;10.80;99.90;;;;;;5001059;28;20029;-58
2023/03/19 05:30:59;;;;;;;9.10;4.03;;;10.80;99.90;;;;;;5003759;28;20038;-57
2023/03/19 05:33:25;;;;;;;8.13;3.95;;;10.70;99.90;;;;;;4982859;28;20339;-58
2023/03/19 05:35:51;;;;;;;9.15;4.32;;;10.60;99.90;;;;;;5005096;28;20060;-58
2023/03/19 05:38:17;;;;;;;8.00;4.15;;;10.70;99.90;;;;;;5002247;28;20035;-57
2023/03/19 05:40:43;;;;;;;7.20;4.57;;;10.60;99.90;;;;;;5002492;28;20628;-57
2023/03/19 05:43:09;;;;;;;8.02;4.97;;;10.60;99.90;;;;;;5002555;28;20038;-57
2023/03/19 05:45:36;;;;;;;6.85;4.88;;;10.80;99.90;;;;;;5003278;28;21257;-58
2023/03/19 05:48:02;;;;;;;9.27;5.53;;;10.70;99.90;;;;;;5001621;28;20036;-57
2023/03/19 05:50:28;;;;;;;8.88;5.57;;;10.80;99.90;;;;;;5003038;28;20113;-57
2023/03/19 05:52:54;;;;;;;8.90;5.38;;;10.90;99.90;;;;;;5003049;28;20747;-57
2023/03/19 05:55:19;;;;;;;7.63;5.65;;;10.90;99.90;;;;;;5002478;28;20038;-57
2023/03/19 05:57:45;;;;;;;10.18;6.47;;;11.10;99.90;;;;;;5002248;28;20184;-57
2023/03/19 06:00:12;;;;;;;9.43;6.50;;;10.90;99.90;;;;;;4985484;28;20030;-57
2023/03/19 06:02:38;;;;;;;6.75;6.05;;;10.80;99.90;;;;;;5002511;28;20396;-58
2023/03/19 06:05:05;;;;;;;9.70;6.72;;;10.80;99.90;;;;;;5001905;28;20061;-57
2023/03/19 06:07:30;;;;;;;7.97;6.32;;;10.60;99.90;;;;;;4999075;28;20108;-57
2023/03/19 06:09:56;;;;;;;8.50;6.60;;;10.60;99.90;;;;;;5002609;28;20131;-57
2023/03/19 06:12:22;;;;;;;8.70;6.90;;;10.60;99.90;;;;;;5002311;28;20038;-56
2023/03/19 06:14:48;;;;;;;10.10;7.40;;;10.60;99.90;;;;;;5003446;28;20136;-58
2023/03/19 06:17:14;;;;;;;8.93;7.68;;;10.70;99.90;;;;;;5001744;28;20046;-57
2023/03/19 06:19:40;;;;;;;11.23;7.57;;;10.70;99.90;;;;;;5002590;28;20048;-57
2023/03/19 06:22:06;;;;;;;8.40;7.45;;;10.70;99.90;;;;;;5002406;28;20123;-57
2023/03/19 06:24:32;;;;;;;9.20;7.82;;;10.80;99.90;;;;;;5003327;28;20207;-57
2023/03/19 06:26:58;;;;;;;11.88;7.47;;;10.70;99.90;;;;;;5001563;28;20030;-57
2023/03/19 06:29:24;;;;;;;10.45;7.78;;;10.60;99.90;;;;;;5002917;28;20041;-57
2023/03/19 06:31:49;;;;;;;10.65;7.10;;;10.60;99.90;;;;;;5001725;28;20041;-57
2023/03/19 06:34:15;;;;;;;10.55;7.07;;;10.70;99.90;;;;;;5002152;28;20066;-57
2023/03/19 06:36:40;;;;;;;8.05;6.90;;;10.60;99.90;;;;;;5002324;28;20061;-57
2023/03/19 06:39:06;;;;;;;7.78;6.97;;;10.80;99.90;;;;;;5002627;28;20125;-57
2023/03/19 06:41:32;;;;;;;10.82;7.25;;;10.80;99.90;;;;;;5004877;28;20103;-57
2023/03/19 06:43:57;;;;;;;9.02;6.90;;;10.80;99.90;;;;;;5004767;28;20030;-58
2023/03/19 06:46:23;;;;;;;9.40;7.03;;;10.80;99.90;;;;;;5004762;28;20033;-57
2023/03/19 06:48:49;;;;;;;10.82;7.40;;;10.90;99.90;;;;;;5002718;28;20037;-58
2023/03/19 06:51:14;;;;;;;10.75;7.10;;;10.80;99.90;;;;;;5014920;28;20117;-57
2023/03/19 06:53:40;;;;;;;12.18;7.65;;;11.00;99.90;;;;;;5011242;28;20550;-58
2023/03/19 06:56:05;;;;;;;12.23;7.45;;;11.00;99.90;;;;;;5007322;28;20046;-60
2023/03/19 06:58:31;;;;;;;10.65;7.20;;;11.10;99.90;;;;;;5011655;28;20030;-61
2023/03/19 07:00:56;;;;;;;10.18;7.47;;;11.00;99.90;;;;;;5005808;28;20501;-61
2023/03/19 07:03:22;;;;;;;10.88;7.72;;;11.10;99.90;;;;;;5005760;28;20587;-61
2023/03/19 07:05:51;;;;;;;11.75;8.60;;;11.10;99.90;;;;;;5006826;28;20109;-61
2023/03/19 07:08:17;;;;;;;10.10;7.80;;;11.10;99.90;;;;;;5004451;28;20038;-61
2023/03/19 07:10:43;;;;;;;8.95;7.90;;;11.20;99.90;;;;;;5008156;28;20634;-60
2023/03/19 07:13:08;;;;;;;11.27;8.77;;;11.30;99.90;;;;;;4996490;28;20040;-61
2023/03/19 07:15:35;;;;;;;12.40;8.93;;;11.50;99.90;;;;;;5010149;28;20488;-61
2023/03/19 07:18:01;;;;;;;10.57;8.98;;;11.60;99.90;;;;;;5009057;28;20745;-61
2023/03/19 07:20:27;;;;;;;12.63;9.00;;;11.60;99.90;;;;;;5009680;28;20034;-61
2023/03/19 07:22:53;;;;;;;13.80;9.52;;;11.60;99.90;;;;;;5007341;28;20107;-61
2023/03/19 07:25:19;;;;;;;12.07;9.60;;;11.60;99.90;;;;;;4997070;28;20068;-61
2023/03/19 07:27:45;;;;;;;12.95;9.82;;;11.70;99.90;;;;;;5014824;28;20125;-61
2023/03/19 07:30:12;;;;;;;11.45;9.40;;;11.70;99.90;;;;;;5011403;28;20113;-61
2023/03/19 07:32:38;;;;;;;12.90;8.70;;;11.80;99.90;;;;;;5004275;28;20489;-61
2023/03/19 07:35:05;;;;;;;10.18;9.00;;;12.00;99.90;;;;;;5009399;28;20128;-60
2023/03/19 07:37:31;;;;;;;13.20;9.48;;;12.20;99.90;;;;;;5016422;28;20095;-61
2023/03/19 07:39:56;;;;;;;12.18;9.38;;;12.20;99.90;;;;;;5008942;28;20475;-61
2023/03/19 07:42:22;;;;;;;11.10;9.15;;;12.20;99.90;;;;;;5003602;28;20054;-61
2023/03/19 07:44:48;;;;;;;11.60;9.57;;;12.20;99.90;;;;;;5004679;28;20184;-61
2023/03/19 07:47:13;;;;;;;12.50;9.30;;;12.10;99.90;;;;;;5004932;28;20038;-61
2023/03/19 07:49:39;;;;;;;10.45;8.63;;;12.00;99.90;;;;;;5012224;28;20049;-61
2023/03/19 07:52:05;;;;;;;11.60;9.60;;;12.10;99.90;;;;;;5006549;28;20048;-61
2023/03/19 07:54:31;;;;;;;9.57;8.43;;;12.30;99.90;;;;;;5005121;28;20695;-62
2023/03/19 07:56:56;;;;;;;11.32;8.68;;;12.20;99.90;;;;;;5004142;28;20053;-61
2023/03/19 07:59:22;;;;;;;12.07;8.80;;;12.30;99.90;;;;;;5004180;28;20091;-61
2023/03/19 08:01:48;;;;;;;9.57;8.65;;;12.30;99.90;;;;;;4971576;28;20030;-60
2023/03/19 08:04:13;;;;;;;12.90;8.93;;;12.40;99.90;;;;;;5004299;28;20080;-60
2023/03/19 08:06:39;;;;;;;10.85;8.50;;;12.30;99.90;;;;;;5004116;28;20045;-60
2023/03/19 08:09:05;;;;;;;10.20;7.93;;;12.30;99.90;;;;;;5004505;28;20109;-60
2023/03/19 08:11:31;;;;;;;8.15;7.35;;;12.10;99.90;;;;;;5002076;28;20041;-60
2023/03/19 08:13:56;;;;;;;10.55;7.78;;;12.10;99.90;;;;;;5004038;28;20583;-60
2023/03/19 08:16:22;;;;;;;10.35;7.55;;;12.00;99.90;;;;;;5002464;28;20049;-61
2023/03/19 08:18:47;;;;;;;7.88;7.00;;;12.10;99.90;;;;;;4988941;28;20092;-61
2023/03/19 08:21:13;;;;;;;7.55;6.78;;;12.20;99.90;;;;;;4991700;28;20452;-60
2023/03/19 08:23:39;;;;;;;8.95;7.28;;;12.40;99.90;;;;;;5010404;28;20460;-60
2023/03/19 08:26:05;;;;;;;9.00;7.32;;;12.60;99.90;;;;;;5002696;28;20026;-60
2023/03/19 08:28:30;;;;;;;9.68;7.55;;;12.70;99.90;;;;;;4999784;28;20034;-61
2023/03/19 08:30:56;;;;;;;7.75;6.95;;;12.90;99.90;;;;;;5004209;28;20041;-60
2023/03/19 08:33:22;;;;;;;9.50;6.95;;;12.90;99.90;;;;;;5003962;28;20046;-61
2023/03/19 08:35:47;;;;;;;8.65;7.25;;;12.80;99.90;;;;;;5006008;28;20045;-62
2023/03/19 08:38:13;;;;;;;8.02;6.68;;;12.90;99.90;;;;;;5002887;28;20033;-61
2023/03/19 08:40:39;;;;;;;7.75;6.75;;;12.90;99.90;;;;;;5002855;28;20046;-61
2023/03/19 08:43:05;;;;;;;8.82;6.60;;;12.70;99.90;;;;;;5003596;28;20026;-61
2023/03/19 08:45:31;;;;;;;8.27;7.00;;;12.80;99.90;;;;;;5006423;28;20037;-61
2023/03/19 08:47:57;;;;;;;7.88;6.78;;;12.80;99.90;;;;;;5007751;28;20390;-61
2023/03/19 08:50:23;;;;;;;7.20;6.50;;;13.00;99.90;;;;;;5007431;28;20034;-61
2023/03/19 08:52:49;;;;;;;8.65;7.20;;;13.10;99.90;;;;;;5003434;28;20045;-61
2023/03/19 08:55:15;;;;;;;9.60;6.95;;;13.20;99.90;;;;;;5003680;28;20058;-61
2023/03/19 08:57:41;;;;;;;8.82;7.20;;;13.20;99.90;;;;;;5002563;28;20132;-61
2023/03/19 09:00:07;;;;;;;10.40;7.30;;;13.10;99.90;;;;;;4990871;28;20546;-60
2023/03/19 09:02:33;;;;;;;8.35;7.30;;;13.20;99.90;;;;;;5015243;28;20057;-61
2023/03/19 09:04:59;;;;;;;9.20;7.95;;;13.30;99.90;;;;;;5015075;28;20022;-61
2023/03/19 09:07:24;;;;;;;9.45;7.97;;;13.40;99.90;;;;;;4992731;28;20068;-60
2023/03/19 09:09:50;;;;;;;8.82;7.93;;;13.60;99.90;;;;;;5008623;28;20083;-60
2023/03/19 09:12:16;;;;;;;10.00;8.32;;;13.30;99.90;;;;;;5006543;28;20069;-60
2023/03/19 09:14:42;;;;;;;8.50;7.30;;;13.20;99.90;;;;;;5007208;28;20746;-60
2023/03/19 09:17:09;;;;;;;9.90;7.72;;;13.30;99.90;;;;;;5010679;28;20149;-60
2023/03/19 09:19:35;;;;;;;9.23;7.55;;;13.20;99.90;;;;;;4989355;28;20046;-60
2023/03/19 09:22:02;;;;;;;8.05;7.10;;;13.10;99.90;;;;;;4999196;28;20036;-61
2023/03/19 09:24:27;;;;;;;9.32;7.78;;;13.10;99.90;;;;;;5002561;28;20084;-60
2023/03/19 09:26:53;;;;;;;12.32;7.78;;;13.30;99.90;;;;;;4999003;28;20029;-61
2023/03/19 09:29:19;;;;;;;9.68;8.18;;;13.30;99.90;;;;;;5006066;28;20058;-61
2023/03/19 09:31:45;;;;;;;8.57;7.00;;;13.30;99.90;;;;;;5002836;28;20034;-60
2023/03/19 09:34:12;;;;;;;7.60;6.80;;;13.40;99.90;;;;;;5001187;28;20045;-61
2023/03/19 09:36:38;;;;;;;8.20;6.90;;;13.40;99.90;;;;;;5004550;28;20030;-60
2023/03/19 09:39:05;;;;;;;7.20;5.55;;;13.50;99.90;;;;;;4985224;28;20046;-60
2023/03/19 09:41:31;;;;;;;6.53;5.40;;;13.40;99.90;;;;;;5005426;28;20073;-64
2023/03/19 09:44:02;;;;;;;8.85;6.75;;;13.50;99.90;;;;;;5003360;28;20061;-64
2023/03/19 09:46:34;;;;;;;8.55;6.88;;;13.60;99.90;;;;;;5002071;28;20030;-64
2023/03/19 09:49:16;;;;;;;7.45;6.55;;;13.60;99.90;;;;;;5002916;28;20033;-64
2023/03/19 09:51:56;;;;;;;9.95;7.30;;;13.40;99.90;;;;;;4965126;28;20043;-64
2023/03/19 09:54:25;;;;;;;7.57;6.57;;;13.50;99.90;;;;;;4983043;28;20081;-61
2023/03/19 09:56:51;;;;;;;9.55;6.90;;;13.60;99.90;;;;;;4984611;28;20121;-60
2023/03/19 09:59:17;;;;;;;9.10;6.75;;;13.60;99.90;;;;;;5004894;28;20149;-61
2023/03/19 10:01:51;;;;;;;7.80;6.70;;;13.60;99.90;;;;;;5003000;28;20037;-61
2023/03/19 10:04:39;;;;;;;10.48;6.82;;;13.60;99.90;;;;;;4982731;28;20033;-61
2023/03/19 10:07:43;;;;;;;8.85;6.47;;;13.70;99.90;;;;;;5002603;28;20041;-61
2023/03/19 10:10:26;;;;;;;7.82;6.32;;;13.70;99.90;;;;;;4952220;28;20027;-61
2023/03/19 10:13:25;;;;;;;6.97;5.32;;;13.60;99.90;;;;;;4964786;28;20114;-61
2023/03/19 10:15:52;;;;;;;7.68;5.47;;;13.50;99.90;;;;;;4978791;28;20121;-61
2023/03/19 10:18:30;;;;;;;6.32;5.53;;;13.70;99.90;;;;;;4997671;28;20042;-61
2023/03/19 10:21:09;;;;;;;8.50;5.18;;;13.60;99.90;;;;;;4999759;28;20441;-62
2023/03/19 10:23:40;;;;;;;7.47;5.60;;;13.70;99.90;;;;;;5007399;28;20030;-61
2023/03/19 10:26:15;;;;;;;6.95;5.90;;;13.60;99.90;;;;;;5008259;28;20556;-62
2023/03/19 10:28:43;;;;;;;10.38;6.13;;;13.60;99.90;;;;;;5008955;28;20839;-61
2023/03/19 10:31:28;;;;;;;7.07;5.30;;;13.70;99.90;;;;;;5010593;28;20038;-61
2023/03/19 10:34:13;;;;;;;8.15;6.20;;;13.90;99.90;;;;;;5007578;28;20034;-61
2023/03/19 10:36:39;;;;;;;7.78;6.50;;;13.70;99.90;;;;;;4985785;28;20467;-62
2023/03/19 10:39:06;;;;;;;10.70;6.82;;;13.90;99.90;;;;;;5005313;28;20037;-62
2023/03/19 10:42:02;;;;;;;10.90;8.07;;;13.80;99.90;;;;;;5005379;28;20037;-61
2023/03/19 10:44:35;;;;;;;9.68;7.80;;;14.60;99.90;;;;;;5007484;28;20667;-62
2023/03/19 10:47:13;;;;;;;12.65;8.05;;;13.80;99.90;;;;;;5006631;28;20042;-61
2023/03/19 10:49:39;;;;;;;8.93;7.40;;;14.10;99.90;;;;;;5009269;28;20092;-62
2023/03/19 10:52:15;;;;;;;10.45;7.63;;;14.20;99.90;;;;;;4991419;28;20551;-61
2023/03/19 10:54:43;;;;;;;9.10;7.40;;;14.20;99.90;;;;;;5011517;28;20029;-61
2023/03/19 10:57:27;;;;;;;9.90;6.85;;;14.10;99.90;;;;;;5012708;28;20049;-62
2023/03/19 10:59:53;;;;;;;8.25;6.85;;;14.20;99.90;;;;;;5012919;28;20366;-62
2023/03/19 11:02:22;;;;;;;7.72;5.82;;;14.20;99.90;;;;;;5005111;28;20044;-62
2023/03/19 11:04:48;;;;;;;7.78;5.90;;;14.20;99.90;;;;;;5009372;28;20482;-62
2023/03/19 11:07:21;;;;;;;6.45;5.20;;;14.10;99.90;;;;;;5007104;28;20408;-61
2023/03/19 11:09:51;;;;;;;5.45;4.20;;;14.10;99.90;;;;;;5009105;28;20034;-61
2023/03/19 11:12:32;;;;;;;3.60;2.55;;;14.10;99.90;;;;;;5014406;28;20096;-61
2023/03/19 11:15:01;;;;;;;4.60;2.30;;;13.90;99.90;;;;;;4999759;28;20033;-61
2023/03/19 11:18:10;;;;;;;3.22;2.10;;;13.70;99.90;;;;;;4989945;28;20127;-61
2023/03/19 11:20:37;;;;;;;3.72;2.15;;;14.00;99.90;;;;;;5002750;28;20038;-61
2023/03/19 11:23:11;;;;;;;3.55;2.20;;;14.10;99.90;;;;;;5001082;28;20061;-61
2023/03/19 11:26:00;;;;;;;4.53;2.15;;;14.00;99.90;;;;;;5007224;28;20135;-62
2023/03/19 11:28:31;;;;;;;3.33;2.22;;;14.20;99.90;;;;;;4997757;28;20030;-62
2023/03/19 11:31:15;;;;;;;3.90;2.50;;;14.30;99.90;;;;;;4997638;28;20042;-62
2023/03/19 11:33:45;;;;;;;5.45;2.38;;;14.30;99.90;;;;;;5001129;28;20049;-61
2023/03/19 11:36:22;;;;;;;4.07;2.25;;;14.30;99.90;;;;;;4999015;28;20080;-62
2023/03/19 11:39:19;;;;;;;4.35;2.30;;;14.40;99.90;;;;;;4961851;28;20089;-61
2023/03/19 11:41:57;;;;;;;4.80;2.65;;;14.60;99.90;;;;;;4997561;28;20038;-62
2023/03/19 11:44:53;;;;;;;4.03;2.60;;;14.50;99.90;;;;;;5000097;28;20050;-62
2023/03/19 11:47:37;;;;;;;6.18;2.72;;;14.50;99.90;;;;;;4973506;28;20038;-62
2023/03/19 11:50:25;;;;;;;5.25;2.50;;;14.60;99.90;;;;;;4998944;28;20031;-61
2023/03/19 11:53:18;;;;;;;4.57;2.60;;;14.50;99.90;;;;;;5004651;28;20830;-62
2023/03/19 11:56:08;;;;;;;4.75;2.47;;;14.60;99.90;;;;;;5001009;28;20038;-62
2023/03/19 11:58:49;;;;;;;6.30;3.28;;;14.80;99.90;;;;;;5004275;28;20466;-62
2023/03/19 12:01:49;;;;;;;5.43;2.60;;;14.70;99.90;;;;;;4999671;28;20034;-61
2023/03/19 12:04:46;;;;;;;4.55;3.00;;;14.70;99.90;;;;;;5001239;28;20030;-62
2023/03/19 12:07:49;;;;;;;5.28;2.50;;;14.80;99.90;;;;;;4981120;28;20476;-62
2023/03/19 12:10:38;;;;;;;4.55;2.53;;;14.90;99.90;;;;;;4997845;28;20069;-62
2023/03/19 12:13:18;;;;;;;4.10;2.78;;;14.90;99.90;;;;;;4996705;28;20565;-62
2023/03/19 12:15:59;;;;;;;4.85;2.70;;;14.90;99.90;;;;;;4997919;28;20030;-62
2023/03/19 12:18:46;;;;;;;5.50;2.90;;;14.90;99.90;;;;;;4998993;28;20607;-62
2023/03/19 12:21:22;;;;;;;3.85;2.40;;;15.00;99.90;;;;;;4983180;28;20116;-62
2023/03/19 12:24:15;;;;;;;4.78;2.80;;;14.90;99.90;;;;;;5000350;28;20049;-62
2023/03/19 12:26:52;;;;;;;4.82;2.30;;;14.90;99.90;;;;;;5000247;28;20069;-61
2023/03/19 12:29:26;;;;;;;5.28;3.05;;;14.90;99.90;;;;;;4997168;28;20032;-61
2023/03/19 12:32:31;;;;;;;4.93;2.60;;;15.10;99.90;;;;;;4999204;28;20113;-62
2023/03/19 12:35:04;;;;;;;4.50;2.90;;;15.20;99.90;;;;;;4988083;28;20041;-61
2023/03/19 12:37:41;;;;;;;5.28;2.70;;;15.30;99.90;;;;;;5006058;28;20042;-62
2023/03/19 12:40:14;;;;;;;5.80;2.55;;;15.20;99.90;;;;;;5003761;28;20121;-61
2023/03/19 12:42:40;;;;;;;4.85;2.78;;;15.30;99.90;;;;;;4999989;28;20045;-62
2023/03/19 12:45:23;;;;;;;5.05;2.75;;;15.30;99.90;;;;;;4996102;28;20041;-62
2023/03/19 12:47:53;;;;;;;5.82;3.63;;;15.40;99.90;;;;;;4978180;28;20057;-62
2023/03/19 12:50:19;;;;;;;4.85;2.80;;;15.50;99.90;;;;;;4996253;28;20038;-62
2023/03/19 12:52:49;;;;;;;4.32;2.65;;;15.50;99.90;;;;;;5000193;28;20034;-62
2023/03/19 12:55:35;;;;;;;6.38;3.10;;;15.50;99.90;;;;;;4999041;28;20040;-62